sensor_id;sensor_type;location;lat;lon;timestamp;P1;durP1;ratioP1;P2;durP2;ratioP2
66702;SDS011;60933;46.398;-63.798;2023-08-06T00:02:04;1.73;;;0.73;;
66702;SDS011;60933;46.398;-63.798;2023-08-06T00:04:31;1.55;;;0.80;;
66702;SDS011;60933;46.398;-63.798;2023-08-06T00:07:00;1.25;;;0.73;;
66702;SDS011;60933;46.398;-63.798;2023-08-06T00:09:26;1.45;;;0.85;;
66702;SDS011;60933;46.398;-63.798;2023-08-06T00:11:52;1.38;;;0.80;;
66702;SDS011;60933;46.398;-63.798;2023-08-06T00:14:18;1.90;;;0.80;;
66702;SDS011;60933;46.398;-63.798;2023-08-06T00:16:44;1.85;;;0.75;;
66702;SDS011;60933;46.398;-63.798;2023-08-06T00:19:11;2.13;;;0.90;;
66702;SDS011;60933;46.398;-63.798;2023-08-06T00:21:37;2.20;;;0.90;;
66702;SDS011;60933;46.398;-63.798;2023-08-06T00:24:04;1.20;;;0.70;;
66702;SDS011;60933;46.398;-63.798;2023-08-06T00:26:30;1.85;;;0.75;;
66702;SDS011;60933;46.398;-63.798;2023-08-06T00:28:56;1.90;;;1.00;;
66702;SDS011;60933;46.398;-63.798;2023-08-06T00:31:22;2.17;;;0.90;;
66702;SDS011;60933;46.398;-63.798;2023-08-06T00:33:48;1.35;;;0.70;;
66702;SDS011;60933;46.398;-63.798;2023-08-06T00:36:14;1.30;;;0.80;;
66702;SDS011;60933;46.398;-63.798;2023-08-06T00:38:40;1.80;;;0.98;;
66702;SDS011;60933;46.398;-63.798;2023-08-06T00:41:06;2.30;;;1.10;;
66702;SDS011;60933;46.398;-63.798;2023-08-06T00:43:32;2.17;;;0.93;;
66702;SDS011;60933;46.398;-63.798;2023-08-06T00:45:58;1.08;;;0.80;;
66702;SDS011;60933;46.398;-63.798;2023-08-06T00:48:25;2.58;;;1.10;;
66702;SDS011;60933;46.398;-63.798;2023-08-06T00:50:52;2.03;;;1.15;;
66702;SDS011;60933;46.398;-63.798;2023-08-06T00:53:18;1.88;;;1.10;;
66702;SDS011;60933;46.398;-63.798;2023-08-06T00:55:45;2.17;;;0.90;;
66702;SDS011;60933;46.398;-63.798;2023-08-06T00:58:12;6.00;;;2.00;;
66702;SDS011;60933;46.398;-63.798;2023-08-06T01:00:39;6.05;;;1.55;;
66702;SDS011;60933;46.398;-63.798;2023-08-06T01:03:06;4.53;;;1.73;;
66702;SDS011;60933;46.398;-63.798;2023-08-06T01:05:32;4.43;;;1.30;;
66702;SDS011;60933;46.398;-63.798;2023-08-06T01:13:42;5.07;;;1.45;;
66702;SDS011;60933;46.398;-63.798;2023-08-06T01:16:18;2.80;;;1.40;;
66702;SDS011;60933;46.398;-63.798;2023-08-06T01:18:49;3.97;;;1.45;;
66702;SDS011;60933;46.398;-63.798;2023-08-06T01:21:15;4.47;;;1.67;;
66702;SDS011;60933;46.398;-63.798;2023-08-06T01:23:42;4.20;;;1.42;;
66702;SDS011;60933;46.398;-63.798;2023-08-06T01:26:17;5.82;;;1.90;;
66702;SDS011;60933;46.398;-63.798;2023-08-06T01:31:48;3.63;;;1.58;;
66702;SDS011;60933;46.398;-63.798;2023-08-06T01:34:22;2.60;;;1.00;;
66702;SDS011;60933;46.398;-63.798;2023-08-06T01:36:50;3.35;;;1.55;;
66702;SDS011;60933;46.398;-63.798;2023-08-06T01:39:16;2.85;;;1.30;;
66702;SDS011;60933;46.398;-63.798;2023-08-06T01:41:46;3.10;;;1.65;;
66702;SDS011;60933;46.398;-63.798;2023-08-06T01:44:13;2.70;;;1.77;;
66702;SDS011;60933;46.398;-63.798;2023-08-06T01:46:40;3.17;;;1.40;;
66702;SDS011;60933;46.398;-63.798;2023-08-06T01:49:06;2.42;;;1.30;;
66702;SDS011;60933;46.398;-63.798;2023-08-06T01:51:32;2.85;;;1.60;;
66702;SDS011;60933;46.398;-63.798;2023-08-06T01:53:59;2.53;;;1.50;;
66702;SDS011;60933;46.398;-63.798;2023-08-06T01:56:25;3.17;;;1.50;;
66702;SDS011;60933;46.398;-63.798;2023-08-06T01:58:51;2.67;;;1.10;;
66702;SDS011;60933;46.398;-63.798;2023-08-06T02:01:17;3.30;;;1.25;;
66702;SDS011;60933;46.398;-63.798;2023-08-06T02:03:43;2.13;;;1.13;;
66702;SDS011;60933;46.398;-63.798;2023-08-06T02:06:09;2.30;;;1.23;;
66702;SDS011;60933;46.398;-63.798;2023-08-06T02:08:36;2.67;;;1.40;;
66702;SDS011;60933;46.398;-63.798;2023-08-06T02:11:02;2.38;;;1.10;;
66702;SDS011;60933;46.398;-63.798;2023-08-06T02:13:28;2.78;;;1.38;;
66702;SDS011;60933;46.398;-63.798;2023-08-06T02:15:54;2.95;;;1.80;;
66702;SDS011;60933;46.398;-63.798;2023-08-06T02:18:20;2.22;;;1.20;;
66702;SDS011;60933;46.398;-63.798;2023-08-06T02:20:59;2.80;;;1.13;;
66702;SDS011;60933;46.398;-63.798;2023-08-06T02:23:25;2.10;;;1.17;;
66702;SDS011;60933;46.398;-63.798;2023-08-06T02:25:58;2.28;;;1.05;;
66702;SDS011;60933;46.398;-63.798;2023-08-06T02:28:28;2.40;;;1.20;;
66702;SDS011;60933;46.398;-63.798;2023-08-06T02:30:55;2.25;;;1.13;;
66702;SDS011;60933;46.398;-63.798;2023-08-06T02:33:21;2.80;;;1.48;;
66702;SDS011;60933;46.398;-63.798;2023-08-06T02:35:47;4.55;;;1.50;;
66702;SDS011;60933;46.398;-63.798;2023-08-06T02:38:13;3.50;;;1.50;;
66702;SDS011;60933;46.398;-63.798;2023-08-06T02:40:43;2.42;;;1.40;;
66702;SDS011;60933;46.398;-63.798;2023-08-06T02:43:12;2.05;;;1.33;;
66702;SDS011;60933;46.398;-63.798;2023-08-06T02:45:39;2.03;;;0.95;;
66702;SDS011;60933;46.398;-63.798;2023-08-06T02:48:05;3.13;;;1.60;;
66702;SDS011;60933;46.398;-63.798;2023-08-06T02:50:37;3.72;;;1.70;;
66702;SDS011;60933;46.398;-63.798;2023-08-06T02:53:09;2.55;;;1.23;;
66702;SDS011;60933;46.398;-63.798;2023-08-06T02:55:35;3.25;;;1.58;;
66702;SDS011;60933;46.398;-63.798;2023-08-06T02:58:01;3.17;;;1.35;;
66702;SDS011;60933;46.398;-63.798;2023-08-06T03:00:28;2.92;;;1.23;;
66702;SDS011;60933;46.398;-63.798;2023-08-06T03:02:54;1.80;;;1.10;;
66702;SDS011;60933;46.398;-63.798;2023-08-06T03:05:20;3.22;;;1.58;;
66702;SDS011;60933;46.398;-63.798;2023-08-06T03:07:46;2.20;;;1.20;;
66702;SDS011;60933;46.398;-63.798;2023-08-06T03:10:13;3.88;;;1.40;;
66702;SDS011;60933;46.398;-63.798;2023-08-06T03:12:39;2.88;;;1.40;;
66702;SDS011;60933;46.398;-63.798;2023-08-06T03:15:05;3.55;;;1.38;;
66702;SDS011;60933;46.398;-63.798;2023-08-06T03:17:32;2.08;;;1.15;;
66702;SDS011;60933;46.398;-63.798;2023-08-06T03:19:58;3.28;;;1.52;;
66702;SDS011;60933;46.398;-63.798;2023-08-06T03:22:24;3.97;;;1.52;;
66702;SDS011;60933;46.398;-63.798;2023-08-06T03:24:50;2.75;;;1.92;;
66702;SDS011;60933;46.398;-63.798;2023-08-06T03:27:17;2.50;;;1.10;;
66702;SDS011;60933;46.398;-63.798;2023-08-06T03:29:43;2.72;;;1.75;;
66702;SDS011;60933;46.398;-63.798;2023-08-06T03:32:09;1.95;;;1.17;;
66702;SDS011;60933;46.398;-63.798;2023-08-06T03:34:35;2.40;;;1.60;;
66702;SDS011;60933;46.398;-63.798;2023-08-06T03:37:01;2.28;;;1.17;;
66702;SDS011;60933;46.398;-63.798;2023-08-06T03:39:27;3.08;;;1.15;;
66702;SDS011;60933;46.398;-63.798;2023-08-06T03:41:53;2.17;;;1.20;;
66702;SDS011;60933;46.398;-63.798;2023-08-06T03:44:19;1.70;;;1.05;;
66702;SDS011;60933;46.398;-63.798;2023-08-06T03:46:45;3.17;;;1.17;;
66702;SDS011;60933;46.398;-63.798;2023-08-06T03:49:11;3.35;;;1.52;;
66702;SDS011;60933;46.398;-63.798;2023-08-06T03:51:37;4.20;;;1.27;;
66702;SDS011;60933;46.398;-63.798;2023-08-06T03:54:03;2.15;;;1.50;;
66702;SDS011;60933;46.398;-63.798;2023-08-06T03:56:30;6.00;;;1.30;;
66702;SDS011;60933;46.398;-63.798;2023-08-06T03:58:56;3.22;;;1.50;;
66702;SDS011;60933;46.398;-63.798;2023-08-06T04:01:22;2.72;;;1.30;;
66702;SDS011;60933;46.398;-63.798;2023-08-06T04:03:48;3.20;;;1.30;;
66702;SDS011;60933;46.398;-63.798;2023-08-06T04:06:14;2.88;;;1.55;;
66702;SDS011;60933;46.398;-63.798;2023-08-06T04:08:40;4.03;;;1.70;;
66702;SDS011;60933;46.398;-63.798;2023-08-06T04:11:06;3.88;;;1.73;;
66702;SDS011;60933;46.398;-63.798;2023-08-06T04:13:33;3.92;;;1.55;;
66702;SDS011;60933;46.398;-63.798;2023-08-06T04:16:02;2.85;;;1.45;;
66702;SDS011;60933;46.398;-63.798;2023-08-06T04:18:29;4.47;;;1.65;;
66702;SDS011;60933;46.398;-63.798;2023-08-06T04:20:55;3.05;;;1.60;;
66702;SDS011;60933;46.398;-63.798;2023-08-06T04:23:22;6.65;;;2.15;;
66702;SDS011;60933;46.398;-63.798;2023-08-06T04:25:49;2.88;;;1.58;;
66702;SDS011;60933;46.398;-63.798;2023-08-06T04:28:15;3.25;;;1.92;;
66702;SDS011;60933;46.398;-63.798;2023-08-06T04:30:42;5.05;;;2.05;;
66702;SDS011;60933;46.398;-63.798;2023-08-06T04:33:08;3.60;;;2.03;;
66702;SDS011;60933;46.398;-63.798;2023-08-06T04:35:34;4.55;;;2.20;;
66702;SDS011;60933;46.398;-63.798;2023-08-06T04:38:00;3.05;;;1.55;;
66702;SDS011;60933;46.398;-63.798;2023-08-06T04:40:26;6.80;;;2.80;;
66702;SDS011;60933;46.398;-63.798;2023-08-06T04:42:52;3.55;;;2.08;;
66702;SDS011;60933;46.398;-63.798;2023-08-06T04:45:18;3.92;;;1.73;;
66702;SDS011;60933;46.398;-63.798;2023-08-06T04:47:44;4.85;;;2.10;;
66702;SDS011;60933;46.398;-63.798;2023-08-06T04:50:10;4.10;;;2.15;;
66702;SDS011;60933;46.398;-63.798;2023-08-06T04:52:37;4.20;;;2.13;;
66702;SDS011;60933;46.398;-63.798;2023-08-06T04:55:03;4.40;;;2.25;;
66702;SDS011;60933;46.398;-63.798;2023-08-06T04:57:31;3.90;;;2.33;;
66702;SDS011;60933;46.398;-63.798;2023-08-06T04:59:57;5.35;;;2.33;;
66702;SDS011;60933;46.398;-63.798;2023-08-06T05:02:23;5.50;;;2.30;;
66702;SDS011;60933;46.398;-63.798;2023-08-06T05:04:49;4.97;;;2.20;;
66702;SDS011;60933;46.398;-63.798;2023-08-06T05:07:15;4.70;;;2.22;;
66702;SDS011;60933;46.398;-63.798;2023-08-06T05:09:41;5.35;;;1.90;;
66702;SDS011;60933;46.398;-63.798;2023-08-06T05:12:07;4.88;;;2.15;;
66702;SDS011;60933;46.398;-63.798;2023-08-06T05:14:34;4.07;;;1.83;;
66702;SDS011;60933;46.398;-63.798;2023-08-06T05:17:00;5.93;;;2.90;;
66702;SDS011;60933;46.398;-63.798;2023-08-06T05:19:28;6.57;;;2.53;;
66702;SDS011;60933;46.398;-63.798;2023-08-06T05:21:54;7.40;;;2.70;;
66702;SDS011;60933;46.398;-63.798;2023-08-06T05:24:20;6.22;;;2.70;;
66702;SDS011;60933;46.398;-63.798;2023-08-06T05:26:46;6.45;;;2.95;;
66702;SDS011;60933;46.398;-63.798;2023-08-06T05:29:13;5.10;;;2.22;;
66702;SDS011;60933;46.398;-63.798;2023-08-06T05:31:39;6.10;;;2.80;;
66702;SDS011;60933;46.398;-63.798;2023-08-06T05:34:05;7.30;;;2.97;;
66702;SDS011;60933;46.398;-63.798;2023-08-06T05:36:31;8.32;;;3.00;;
66702;SDS011;60933;46.398;-63.798;2023-08-06T05:38:57;5.57;;;2.40;;
66702;SDS011;60933;46.398;-63.798;2023-08-06T05:41:23;6.03;;;2.53;;
66702;SDS011;60933;46.398;-63.798;2023-08-06T05:43:49;6.38;;;2.53;;
66702;SDS011;60933;46.398;-63.798;2023-08-06T05:46:16;7.80;;;2.45;;
66702;SDS011;60933;46.398;-63.798;2023-08-06T05:48:42;6.45;;;2.70;;
66702;SDS011;60933;46.398;-63.798;2023-08-06T05:51:08;5.50;;;2.40;;
66702;SDS011;60933;46.398;-63.798;2023-08-06T05:53:34;8.73;;;2.92;;
66702;SDS011;60933;46.398;-63.798;2023-08-06T05:56:00;5.25;;;2.05;;
66702;SDS011;60933;46.398;-63.798;2023-08-06T05:58:26;5.30;;;2.50;;
66702;SDS011;60933;46.398;-63.798;2023-08-06T06:00:54;4.90;;;2.70;;
66702;SDS011;60933;46.398;-63.798;2023-08-06T06:03:20;5.68;;;2.50;;
66702;SDS011;60933;46.398;-63.798;2023-08-06T06:05:46;5.78;;;2.60;;
66702;SDS011;60933;46.398;-63.798;2023-08-06T06:08:12;6.93;;;2.78;;
66702;SDS011;60933;46.398;-63.798;2023-08-06T06:10:38;7.40;;;3.47;;
66702;SDS011;60933;46.398;-63.798;2023-08-06T06:13:04;5.90;;;2.85;;
66702;SDS011;60933;46.398;-63.798;2023-08-06T06:15:30;8.93;;;3.10;;
66702;SDS011;60933;46.398;-63.798;2023-08-06T06:17:56;7.05;;;3.20;;
66702;SDS011;60933;46.398;-63.798;2023-08-06T06:20:23;7.38;;;2.72;;
66702;SDS011;60933;46.398;-63.798;2023-08-06T06:22:49;6.07;;;2.90;;
66702;SDS011;60933;46.398;-63.798;2023-08-06T06:25:15;6.82;;;3.15;;
66702;SDS011;60933;46.398;-63.798;2023-08-06T06:27:41;6.20;;;3.35;;
66702;SDS011;60933;46.398;-63.798;2023-08-06T06:30:07;6.40;;;3.03;;
66702;SDS011;60933;46.398;-63.798;2023-08-06T06:32:34;8.30;;;3.28;;
66702;SDS011;60933;46.398;-63.798;2023-08-06T06:35:00;6.28;;;2.90;;
66702;SDS011;60933;46.398;-63.798;2023-08-06T06:37:26;6.18;;;2.80;;
66702;SDS011;60933;46.398;-63.798;2023-08-06T06:39:52;6.22;;;2.60;;
66702;SDS011;60933;46.398;-63.798;2023-08-06T06:42:18;5.00;;;2.72;;
66702;SDS011;60933;46.398;-63.798;2023-08-06T06:44:44;6.72;;;3.20;;
66702;SDS011;60933;46.398;-63.798;2023-08-06T06:47:10;6.70;;;2.75;;
66702;SDS011;60933;46.398;-63.798;2023-08-06T06:49:36;7.72;;;2.92;;
66702;SDS011;60933;46.398;-63.798;2023-08-06T06:52:03;5.38;;;2.53;;
66702;SDS011;60933;46.398;-63.798;2023-08-06T06:54:29;5.65;;;3.00;;
66702;SDS011;60933;46.398;-63.798;2023-08-06T06:56:55;6.40;;;2.80;;
66702;SDS011;60933;46.398;-63.798;2023-08-06T06:59:21;6.47;;;2.60;;
66702;SDS011;60933;46.398;-63.798;2023-08-06T07:01:47;6.68;;;2.67;;
66702;SDS011;60933;46.398;-63.798;2023-08-06T07:04:14;5.82;;;2.85;;
66702;SDS011;60933;46.398;-63.798;2023-08-06T07:06:40;6.15;;;2.95;;
66702;SDS011;60933;46.398;-63.798;2023-08-06T07:09:06;5.80;;;3.20;;
66702;SDS011;60933;46.398;-63.798;2023-08-06T07:11:32;7.90;;;3.35;;
66702;SDS011;60933;46.398;-63.798;2023-08-06T07:13:58;7.40;;;3.22;;
66702;SDS011;60933;46.398;-63.798;2023-08-06T07:16:25;8.88;;;3.53;;
66702;SDS011;60933;46.398;-63.798;2023-08-06T07:18:52;6.55;;;3.15;;
66702;SDS011;60933;46.398;-63.798;2023-08-06T07:21:19;7.68;;;3.90;;
66702;SDS011;60933;46.398;-63.798;2023-08-06T07:23:45;6.22;;;3.15;;
66702;SDS011;60933;46.398;-63.798;2023-08-06T07:26:14;6.13;;;3.25;;
66702;SDS011;60933;46.398;-63.798;2023-08-06T07:28:41;7.55;;;3.67;;
66702;SDS011;60933;46.398;-63.798;2023-08-06T07:31:07;6.78;;;3.42;;
66702;SDS011;60933;46.398;-63.798;2023-08-06T07:33:33;8.07;;;4.18;;
66702;SDS011;60933;46.398;-63.798;2023-08-06T07:36:00;8.60;;;3.50;;
66702;SDS011;60933;46.398;-63.798;2023-08-06T07:38:32;7.28;;;3.80;;
66702;SDS011;60933;46.398;-63.798;2023-08-06T07:41:01;7.88;;;4.35;;
66702;SDS011;60933;46.398;-63.798;2023-08-06T07:43:27;7.18;;;3.80;;
66702;SDS011;60933;46.398;-63.798;2023-08-06T07:45:53;9.02;;;3.58;;
66702;SDS011;60933;46.398;-63.798;2023-08-06T07:48:19;8.07;;;3.90;;
66702;SDS011;60933;46.398;-63.798;2023-08-06T07:50:45;7.22;;;3.22;;
66702;SDS011;60933;46.398;-63.798;2023-08-06T07:53:15;7.70;;;3.38;;
66702;SDS011;60933;46.398;-63.798;2023-08-06T07:55:41;7.13;;;3.53;;
66702;SDS011;60933;46.398;-63.798;2023-08-06T07:58:07;10.02;;;4.03;;
66702;SDS011;60933;46.398;-63.798;2023-08-06T08:00:33;8.07;;;3.70;;
66702;SDS011;60933;46.398;-63.798;2023-08-06T08:02:59;6.07;;;3.50;;
66702;SDS011;60933;46.398;-63.798;2023-08-06T08:05:26;5.93;;;3.42;;
66702;SDS011;60933;46.398;-63.798;2023-08-06T08:07:52;6.63;;;3.72;;
66702;SDS011;60933;46.398;-63.798;2023-08-06T08:10:18;7.07;;;3.72;;
66702;SDS011;60933;46.398;-63.798;2023-08-06T08:12:44;8.02;;;3.58;;
66702;SDS011;60933;46.398;-63.798;2023-08-06T08:15:12;8.10;;;3.75;;
66702;SDS011;60933;46.398;-63.798;2023-08-06T08:17:38;9.38;;;3.67;;
66702;SDS011;60933;46.398;-63.798;2023-08-06T08:20:05;8.38;;;3.88;;
66702;SDS011;60933;46.398;-63.798;2023-08-06T08:22:31;7.57;;;3.88;;
66702;SDS011;60933;46.398;-63.798;2023-08-06T08:24:58;6.13;;;3.55;;
66702;SDS011;60933;46.398;-63.798;2023-08-06T08:27:24;7.13;;;3.30;;
66702;SDS011;60933;46.398;-63.798;2023-08-06T08:29:50;5.82;;;3.17;;
66702;SDS011;60933;46.398;-63.798;2023-08-06T08:32:16;6.85;;;3.83;;
66702;SDS011;60933;46.398;-63.798;2023-08-06T08:34:42;7.70;;;3.55;;
66702;SDS011;60933;46.398;-63.798;2023-08-06T08:37:09;6.38;;;3.80;;
66702;SDS011;60933;46.398;-63.798;2023-08-06T08:39:35;7.78;;;3.55;;
66702;SDS011;60933;46.398;-63.798;2023-08-06T08:42:02;7.65;;;3.63;;
66702;SDS011;60933;46.398;-63.798;2023-08-06T08:44:29;7.32;;;3.50;;
66702;SDS011;60933;46.398;-63.798;2023-08-06T08:46:57;7.38;;;3.30;;
66702;SDS011;60933;46.398;-63.798;2023-08-06T08:49:24;8.55;;;4.00;;
66702;SDS011;60933;46.398;-63.798;2023-08-06T08:51:53;7.35;;;3.53;;
66702;SDS011;60933;46.398;-63.798;2023-08-06T08:54:20;7.32;;;3.80;;
66702;SDS011;60933;46.398;-63.798;2023-08-06T08:56:49;7.28;;;3.50;;
66702;SDS011;60933;46.398;-63.798;2023-08-06T08:59:15;7.20;;;3.47;;
66702;SDS011;60933;46.398;-63.798;2023-08-06T09:01:41;5.70;;;3.20;;
66702;SDS011;60933;46.398;-63.798;2023-08-06T09:04:10;6.82;;;4.45;;
66702;SDS011;60933;46.398;-63.798;2023-08-06T09:06:37;6.70;;;3.65;;
66702;SDS011;60933;46.398;-63.798;2023-08-06T09:11:36;5.57;;;3.50;;
66702;SDS011;60933;46.398;-63.798;2023-08-06T09:14:08;7.00;;;4.00;;
66702;SDS011;60933;46.398;-63.798;2023-08-06T09:16:35;7.82;;;4.18;;
66702;SDS011;60933;46.398;-63.798;2023-08-06T09:19:10;7.20;;;3.97;;
66702;SDS011;60933;46.398;-63.798;2023-08-06T09:21:46;7.97;;;3.60;;
66702;SDS011;60933;46.398;-63.798;2023-08-06T09:24:15;6.38;;;3.80;;
66702;SDS011;60933;46.398;-63.798;2023-08-06T09:26:44;7.03;;;3.80;;
66702;SDS011;60933;46.398;-63.798;2023-08-06T09:29:11;6.70;;;3.50;;
66702;SDS011;60933;46.398;-63.798;2023-08-06T09:34:23;8.07;;;4.00;;
66702;SDS011;60933;46.398;-63.798;2023-08-06T09:36:50;8.50;;;4.20;;
66702;SDS011;60933;46.398;-63.798;2023-08-06T09:39:27;9.55;;;4.18;;
66702;SDS011;60933;46.398;-63.798;2023-08-06T09:42:01;8.02;;;4.20;;
66702;SDS011;60933;46.398;-63.798;2023-08-06T09:44:29;7.55;;;3.78;;
66702;SDS011;60933;46.398;-63.798;2023-08-06T09:47:00;6.85;;;3.28;;
66702;SDS011;60933;46.398;-63.798;2023-08-06T09:49:28;7.53;;;3.40;;
66702;SDS011;60933;46.398;-63.798;2023-08-06T09:52:11;6.93;;;3.63;;
66702;SDS011;60933;46.398;-63.798;2023-08-06T09:54:38;6.05;;;3.30;;
66702;SDS011;60933;46.398;-63.798;2023-08-06T09:57:05;5.55;;;2.85;;
66702;SDS011;60933;46.398;-63.798;2023-08-06T09:59:32;5.00;;;3.13;;
66702;SDS011;60933;46.398;-63.798;2023-08-06T10:01:58;7.43;;;3.42;;
66702;SDS011;60933;46.398;-63.798;2023-08-06T10:04:25;5.72;;;3.40;;
66702;SDS011;60933;46.398;-63.798;2023-08-06T10:06:52;6.82;;;3.15;;
66702;SDS011;60933;46.398;-63.798;2023-08-06T10:09:19;5.53;;;3.17;;
66702;SDS011;60933;46.398;-63.798;2023-08-06T10:11:49;5.40;;;3.00;;
66702;SDS011;60933;46.398;-63.798;2023-08-06T10:16:51;7.18;;;3.10;;
66702;SDS011;60933;46.398;-63.798;2023-08-06T10:19:18;5.90;;;3.13;;
66702;SDS011;60933;46.398;-63.798;2023-08-06T10:24:56;5.80;;;3.28;;
66702;SDS011;60933;46.398;-63.798;2023-08-06T10:27:28;5.03;;;3.03;;
66702;SDS011;60933;46.398;-63.798;2023-08-06T10:29:56;6.45;;;3.20;;
66702;SDS011;60933;46.398;-63.798;2023-08-06T10:32:52;6.07;;;3.05;;
66702;SDS011;60933;46.398;-63.798;2023-08-06T10:40:36;5.85;;;3.70;;
66702;SDS011;60933;46.398;-63.798;2023-08-06T10:43:05;6.82;;;3.35;;
66702;SDS011;60933;46.398;-63.798;2023-08-06T10:45:36;5.85;;;3.55;;
66702;SDS011;60933;46.398;-63.798;2023-08-06T10:48:03;6.45;;;3.58;;
66702;SDS011;60933;46.398;-63.798;2023-08-06T10:50:30;6.82;;;3.70;;
66702;SDS011;60933;46.398;-63.798;2023-08-06T10:52:56;7.15;;;3.90;;
66702;SDS011;60933;46.398;-63.798;2023-08-06T10:55:26;7.22;;;3.95;;
66702;SDS011;60933;46.398;-63.798;2023-08-06T10:57:54;8.50;;;4.95;;
66702;SDS011;60933;46.398;-63.798;2023-08-06T11:00:22;6.60;;;3.70;;
66702;SDS011;60933;46.398;-63.798;2023-08-06T11:02:52;8.73;;;3.70;;
66702;SDS011;60933;46.398;-63.798;2023-08-06T11:05:20;8.38;;;4.32;;
66702;SDS011;60933;46.398;-63.798;2023-08-06T11:07:46;7.88;;;4.25;;
66702;SDS011;60933;46.398;-63.798;2023-08-06T11:10:14;7.00;;;4.40;;
66702;SDS011;60933;46.398;-63.798;2023-08-06T11:12:40;8.23;;;4.70;;
66702;SDS011;60933;46.398;-63.798;2023-08-06T11:15:07;7.95;;;4.20;;
66702;SDS011;60933;46.398;-63.798;2023-08-06T11:17:33;7.30;;;3.85;;
66702;SDS011;60933;46.398;-63.798;2023-08-06T11:20:03;7.45;;;4.13;;
66702;SDS011;60933;46.398;-63.798;2023-08-06T11:22:30;7.43;;;3.97;;
66702;SDS011;60933;46.398;-63.798;2023-08-06T11:24:57;8.50;;;4.35;;
66702;SDS011;60933;46.398;-63.798;2023-08-06T11:27:25;7.75;;;4.20;;
66702;SDS011;60933;46.398;-63.798;2023-08-06T11:29:53;8.35;;;4.30;;
66702;SDS011;60933;46.398;-63.798;2023-08-06T11:32:20;9.15;;;4.43;;
66702;SDS011;60933;46.398;-63.798;2023-08-06T11:34:46;7.20;;;4.25;;
66702;SDS011;60933;46.398;-63.798;2023-08-06T11:37:12;8.07;;;4.18;;
66702;SDS011;60933;46.398;-63.798;2023-08-06T11:39:38;8.63;;;4.57;;
66702;SDS011;60933;46.398;-63.798;2023-08-06T11:42:09;8.00;;;3.88;;
66702;SDS011;60933;46.398;-63.798;2023-08-06T11:44:38;9.07;;;4.65;;
66702;SDS011;60933;46.398;-63.798;2023-08-06T11:47:12;8.23;;;4.95;;
66702;SDS011;60933;46.398;-63.798;2023-08-06T11:49:46;7.88;;;4.13;;
66702;SDS011;60933;46.398;-63.798;2023-08-06T11:52:15;8.60;;;4.68;;
66702;SDS011;60933;46.398;-63.798;2023-08-06T11:54:59;9.15;;;4.93;;
66702;SDS011;60933;46.398;-63.798;2023-08-06T11:57:36;10.13;;;4.85;;
66702;SDS011;60933;46.398;-63.798;2023-08-06T12:00:03;7.80;;;4.18;;
66702;SDS011;60933;46.398;-63.798;2023-08-06T12:02:33;9.50;;;5.00;;
66702;SDS011;60933;46.398;-63.798;2023-08-06T12:07:48;9.48;;;4.55;;
66702;SDS011;60933;46.398;-63.798;2023-08-06T12:10:16;6.90;;;4.20;;
66702;SDS011;60933;46.398;-63.798;2023-08-06T12:12:45;8.82;;;4.32;;
66702;SDS011;60933;46.398;-63.798;2023-08-06T12:15:11;7.85;;;5.30;;
66702;SDS011;60933;46.398;-63.798;2023-08-06T12:17:37;9.40;;;4.90;;
66702;SDS011;60933;46.398;-63.798;2023-08-06T12:20:04;8.65;;;4.78;;
66702;SDS011;60933;46.398;-63.798;2023-08-06T12:22:32;9.00;;;4.88;;
66702;SDS011;60933;46.398;-63.798;2023-08-06T12:27:34;8.65;;;4.70;;
66702;SDS011;60933;46.398;-63.798;2023-08-06T12:30:01;9.63;;;5.25;;
66702;SDS011;60933;46.398;-63.798;2023-08-06T12:32:27;8.43;;;5.00;;
66702;SDS011;60933;46.398;-63.798;2023-08-06T12:34:53;10.95;;;5.68;;
66702;SDS011;60933;46.398;-63.798;2023-08-06T12:37:19;9.68;;;5.90;;
66702;SDS011;60933;46.398;-63.798;2023-08-06T12:39:46;9.57;;;5.03;;
66702;SDS011;60933;46.398;-63.798;2023-08-06T12:42:12;10.00;;;5.68;;
66702;SDS011;60933;46.398;-63.798;2023-08-06T12:44:38;9.38;;;5.13;;
66702;SDS011;60933;46.398;-63.798;2023-08-06T12:47:04;10.30;;;5.30;;
66702;SDS011;60933;46.398;-63.798;2023-08-06T12:49:30;8.90;;;5.45;;
66702;SDS011;60933;46.398;-63.798;2023-08-06T12:51:58;9.85;;;6.10;;
66702;SDS011;60933;46.398;-63.798;2023-08-06T12:54:27;11.07;;;5.60;;
66702;SDS011;60933;46.398;-63.798;2023-08-06T12:56:54;10.60;;;5.72;;
66702;SDS011;60933;46.398;-63.798;2023-08-06T12:59:20;10.82;;;5.55;;
66702;SDS011;60933;46.398;-63.798;2023-08-06T13:01:46;10.38;;;6.18;;
66702;SDS011;60933;46.398;-63.798;2023-08-06T13:04:13;10.80;;;5.93;;
66702;SDS011;60933;46.398;-63.798;2023-08-06T13:06:39;9.85;;;5.50;;
66702;SDS011;60933;46.398;-63.798;2023-08-06T13:09:08;8.32;;;5.07;;
66702;SDS011;60933;46.398;-63.798;2023-08-06T13:11:35;9.52;;;5.38;;
66702;SDS011;60933;46.398;-63.798;2023-08-06T13:14:05;8.48;;;5.20;;
66702;SDS011;60933;46.398;-63.798;2023-08-06T13:16:38;9.23;;;4.70;;
66702;SDS011;60933;46.398;-63.798;2023-08-06T13:19:06;9.10;;;5.10;;
66702;SDS011;60933;46.398;-63.798;2023-08-06T13:21:59;8.73;;;5.15;;
66702;SDS011;60933;46.398;-63.798;2023-08-06T13:24:28;7.72;;;4.95;;
66702;SDS011;60933;46.398;-63.798;2023-08-06T13:26:54;9.23;;;5.15;;
66702;SDS011;60933;46.398;-63.798;2023-08-06T13:29:21;9.43;;;5.43;;
66702;SDS011;60933;46.398;-63.798;2023-08-06T13:31:47;10.13;;;5.35;;
66702;SDS011;60933;46.398;-63.798;2023-08-06T13:34:13;9.63;;;5.40;;
66702;SDS011;60933;46.398;-63.798;2023-08-06T13:36:41;8.05;;;4.80;;
66702;SDS011;60933;46.398;-63.798;2023-08-06T13:39:07;8.63;;;4.80;;
66702;SDS011;60933;46.398;-63.798;2023-08-06T13:41:34;9.13;;;5.18;;
66702;SDS011;60933;46.398;-63.798;2023-08-06T13:44:00;8.85;;;5.03;;
66702;SDS011;60933;46.398;-63.798;2023-08-06T13:46:26;7.95;;;4.70;;
66702;SDS011;60933;46.398;-63.798;2023-08-06T13:48:52;10.13;;;5.30;;
66702;SDS011;60933;46.398;-63.798;2023-08-06T13:51:18;10.30;;;5.55;;
66702;SDS011;60933;46.398;-63.798;2023-08-06T13:53:44;10.75;;;4.93;;
66702;SDS011;60933;46.398;-63.798;2023-08-06T13:56:11;9.70;;;5.22;;
66702;SDS011;60933;46.398;-63.798;2023-08-06T13:58:40;8.45;;;4.93;;
66702;SDS011;60933;46.398;-63.798;2023-08-06T14:01:06;9.45;;;5.10;;
66702;SDS011;60933;46.398;-63.798;2023-08-06T14:03:34;8.57;;;4.55;;
66702;SDS011;60933;46.398;-63.798;2023-08-06T14:06:00;7.10;;;4.38;;
66702;SDS011;60933;46.398;-63.798;2023-08-06T14:08:26;9.07;;;5.25;;
66702;SDS011;60933;46.398;-63.798;2023-08-06T14:10:53;10.13;;;4.75;;
66702;SDS011;60933;46.398;-63.798;2023-08-06T14:13:20;8.13;;;5.07;;
66702;SDS011;60933;46.398;-63.798;2023-08-06T14:15:47;7.80;;;4.88;;
66702;SDS011;60933;46.398;-63.798;2023-08-06T14:18:14;8.20;;;4.80;;
66702;SDS011;60933;46.398;-63.798;2023-08-06T14:20:40;9.43;;;5.20;;
66702;SDS011;60933;46.398;-63.798;2023-08-06T14:23:07;8.25;;;5.20;;
66702;SDS011;60933;46.398;-63.798;2023-08-06T14:25:34;8.88;;;4.85;;
66702;SDS011;60933;46.398;-63.798;2023-08-06T14:28:00;7.10;;;4.53;;
66702;SDS011;60933;46.398;-63.798;2023-08-06T14:30:26;7.70;;;4.43;;
66702;SDS011;60933;46.398;-63.798;2023-08-06T14:32:52;8.90;;;4.90;;
66702;SDS011;60933;46.398;-63.798;2023-08-06T14:35:18;8.48;;;5.18;;
66702;SDS011;60933;46.398;-63.798;2023-08-06T14:37:44;9.45;;;5.43;;
66702;SDS011;60933;46.398;-63.798;2023-08-06T14:40:11;8.30;;;4.95;;
66702;SDS011;60933;46.398;-63.798;2023-08-06T14:42:37;8.50;;;4.82;;
66702;SDS011;60933;46.398;-63.798;2023-08-06T14:45:04;7.50;;;5.43;;
66702;SDS011;60933;46.398;-63.798;2023-08-06T14:47:30;8.88;;;4.78;;
66702;SDS011;60933;46.398;-63.798;2023-08-06T14:49:56;10.07;;;5.43;;
66702;SDS011;60933;46.398;-63.798;2023-08-06T14:52:22;8.13;;;4.88;;